createdAt,value
2023-03-07T00:00:23.910Z,3.75
2023-03-07T00:01:29.331Z,5.50
2023-03-07T00:02:34.774Z,6.50
2023-03-07T00:03:42.344Z,5.00
2023-03-07T00:05:53.092Z,4.50
2023-03-07T00:06:58.757Z,5.50
2023-03-07T00:08:04.293Z,5.50
2023-03-07T00:09:09.899Z,3.75
2023-03-07T00:10:16.008Z,4.50
2023-03-07T00:11:21.278Z,5.00
2023-03-07T00:12:26.535Z,5.50
2023-03-07T00:13:32.032Z,5.75
2023-03-07T00:14:38.074Z,5.25
2023-03-07T00:15:43.614Z,5.00
2023-03-07T00:16:48.075Z,4.75
2023-03-07T00:17:52.376Z,4.00
2023-03-07T00:18:57.630Z,4.50
2023-03-07T00:20:02.614Z,4.50
2023-03-07T00:21:07.889Z,3.00
2023-03-07T00:22:14.593Z,3.25
2023-03-07T00:23:19.555Z,2.75
2023-03-07T00:24:24.660Z,3.25
2023-03-07T00:25:30.034Z,3.50
2023-03-07T00:26:35.512Z,3.00
2023-03-07T00:27:40.940Z,3.50
2023-03-07T00:28:46.542Z,4.00
2023-03-07T00:29:52.124Z,3.50
2023-03-07T00:30:57.303Z,4.25
2023-03-07T00:32:05.776Z,5.00
2023-03-07T00:33:11.312Z,6.00
2023-03-07T00:34:16.675Z,5.50
2023-03-07T00:35:21.607Z,5.50
2023-03-07T00:36:26.447Z,6.25
2023-03-07T00:37:39.396Z,5.25
2023-03-07T00:38:44.558Z,4.25
2023-03-07T00:40:52.435Z,4.00
2023-03-07T00:41:57.854Z,3.75
2023-03-07T00:43:03.088Z,4.50
2023-03-07T00:44:09.316Z,4.00
2023-03-07T00:45:15.225Z,5.00
2023-03-07T00:46:20.680Z,6.50
2023-03-07T00:47:25.989Z,7.00
2023-03-07T00:48:33.608Z,5.00
2023-03-07T00:49:42.508Z,4.25
2023-03-07T00:50:48.130Z,4.75
2023-03-07T00:51:53.356Z,4.00
2023-03-07T00:52:58.595Z,5.00
2023-03-07T00:54:03.988Z,5.50
2023-03-07T00:55:09.169Z,5.50
2023-03-07T00:56:14.776Z,5.50
2023-03-07T00:57:30.358Z,4.00
2023-03-07T00:58:35.994Z,3.75
2023-03-07T00:59:41.638Z,5.50
2023-03-07T01:00:51.872Z,5.50
2023-03-07T01:01:57.720Z,4.00
2023-03-07T01:03:03.302Z,4.50
2023-03-07T01:04:09.051Z,5.00
2023-03-07T01:05:14.486Z,5.25
2023-03-07T01:06:21.397Z,4.50
2023-03-07T01:07:27.081Z,5.00
2023-03-07T01:08:34.936Z,4.50
2023-03-07T01:09:40.477Z,3.75
2023-03-07T01:10:45.607Z,6.50
2023-03-07T01:11:50.956Z,6.75
2023-03-07T01:12:56.914Z,5.00
2023-03-07T01:14:02.456Z,4.25
2023-03-07T01:15:07.897Z,5.50
2023-03-07T01:16:12.801Z,5.50
2023-03-07T01:17:18.732Z,4.50
2023-03-07T01:18:23.643Z,5.00
2023-03-07T01:19:32.803Z,6.00
2023-03-07T01:20:38.224Z,6.50
2023-03-07T01:21:43.650Z,6.00
2023-03-07T01:22:48.917Z,5.00
2023-03-07T01:23:55.814Z,5.50
2023-03-07T01:25:03.940Z,6.75
2023-03-07T01:26:10.791Z,9.00
2023-03-07T01:27:14.817Z,5.50
2023-03-07T01:28:20.638Z,7.00
2023-03-07T01:29:26.161Z,4.50
2023-03-07T01:30:31.245Z,7.25
2023-03-07T01:31:38.452Z,9.25
2023-03-07T01:32:43.049Z,3.50
2023-03-07T01:33:48.344Z,3.50
2023-03-07T01:34:53.780Z,5.75
2023-03-07T01:35:59.309Z,6.50
2023-03-07T01:37:04.945Z,6.00
2023-03-07T01:38:10.386Z,4.25
2023-03-07T01:39:16.052Z,7.50
2023-03-07T01:40:21.366Z,7.25
2023-03-07T01:41:26.685Z,4.75
2023-03-07T01:42:33.486Z,4.50
2023-03-07T01:43:38.843Z,4.75
2023-03-07T01:44:44.974Z,3.50
2023-03-07T01:45:50.866Z,3.00
2023-03-07T01:46:58.420Z,4.00
2023-03-07T01:48:04.119Z,3.50
2023-03-07T01:49:09.476Z,4.00
2023-03-07T01:50:14.700Z,3.75
2023-03-07T01:51:20.383Z,3.75
2023-03-07T01:52:25.440Z,4.00
2023-03-07T01:53:34.662Z,4.00
2023-03-07T01:54:42.039Z,3.50
2023-03-07T01:55:54.111Z,3.25
2023-03-07T01:57:00.502Z,3.00
2023-03-07T01:58:05.980Z,2.50
2023-03-07T01:59:12.527Z,3.00
2023-03-07T02:00:18.572Z,3.25
2023-03-07T02:01:25.091Z,4.00
2023-03-07T02:02:30.931Z,5.25
2023-03-07T02:03:37.401Z,4.50
2023-03-07T02:04:43.160Z,4.00
2023-03-07T02:05:48.492Z,3.00
2023-03-07T02:06:54.612Z,2.50
2023-03-07T02:08:00.263Z,3.00
2023-03-07T02:09:06.429Z,2.50
2023-03-07T02:10:11.946Z,3.00
2023-03-07T02:11:17.712Z,4.50
2023-03-07T02:12:23.213Z,4.50
2023-03-07T02:13:28.966Z,3.75
2023-03-07T02:14:35.329Z,3.00
2023-03-07T02:15:40.943Z,4.50
2023-03-07T02:16:46.187Z,5.50
2023-03-07T02:17:51.413Z,4.50
2023-03-07T02:18:57.384Z,4.00
2023-03-07T02:20:05.710Z,4.00
2023-03-07T02:21:11.121Z,3.00
2023-03-07T02:22:16.266Z,4.50
2023-03-07T02:23:21.850Z,5.50
2023-03-07T02:24:27.399Z,6.25
2023-03-07T02:25:33.561Z,6.00
2023-03-07T02:26:38.925Z,4.50
2023-03-07T02:27:44.325Z,5.50
2023-03-07T02:28:52.225Z,5.75
2023-03-07T02:29:57.771Z,6.00
2023-03-07T02:31:03.204Z,5.00
2023-03-07T02:32:08.991Z,5.00
2023-03-07T02:33:13.675Z,3.50
2023-03-07T02:34:19.094Z,5.00
2023-03-07T02:35:25.549Z,4.00
2023-03-07T02:36:31.409Z,2.50
2023-03-07T02:37:36.096Z,3.00
2023-03-07T02:38:41.392Z,4.00
2023-03-07T02:39:46.981Z,4.75
2023-03-07T02:40:52.406Z,3.50
2023-03-07T02:41:57.703Z,5.50
2023-03-07T02:43:02.617Z,6.00
2023-03-07T02:44:09.322Z,4.00
2023-03-07T02:45:14.773Z,4.50
2023-03-07T02:46:20.404Z,4.50
2023-03-07T02:47:24.928Z,5.25
2023-03-07T02:48:29.845Z,6.50
2023-03-07T02:49:35.999Z,7.00
2023-03-07T02:50:40.917Z,6.50
2023-03-07T02:51:48.699Z,5.50
2023-03-07T02:52:53.832Z,4.50
2023-03-07T02:54:08.410Z,3.50
2023-03-07T02:55:13.834Z,2.75
2023-03-07T02:56:19.044Z,4.00
2023-03-07T02:57:23.892Z,3.00
2023-03-07T02:58:29.025Z,2.75
2023-03-07T02:59:35.137Z,3.50
2023-03-07T03:00:40.269Z,4.00
2023-03-07T03:01:45.548Z,4.00
2023-03-07T03:02:51.238Z,5.00
2023-03-07T03:03:56.579Z,4.50
2023-03-07T03:05:01.998Z,5.50
2023-03-07T03:06:07.568Z,5.75
2023-03-07T03:07:12.671Z,4.50
2023-03-07T03:08:17.502Z,2.50
2023-03-07T03:09:23.132Z,3.00
2023-03-07T03:10:27.998Z,2.50
2023-03-07T03:11:33.300Z,1.50
2023-03-07T03:12:38.517Z,1.00
2023-03-07T03:13:44.069Z,2.00
2023-03-07T03:14:49.509Z,1.50
2023-03-07T03:15:54.333Z,1.50
2023-03-07T03:16:59.445Z,1.00
2023-03-07T03:18:04.632Z,1.50
2023-03-07T03:19:10.006Z,1.50
2023-03-07T03:20:15.829Z,1.50
2023-03-07T03:21:21.463Z,3.50
2023-03-07T03:22:26.846Z,4.75
2023-03-07T03:23:31.472Z,4.50
2023-03-07T03:24:37.660Z,3.00
2023-03-07T03:25:51.798Z,3.00
2023-03-07T03:26:56.717Z,3.50
2023-03-07T03:28:03.412Z,3.50
2023-03-07T03:29:08.849Z,3.25
2023-03-07T03:30:14.175Z,3.00
2023-03-07T03:31:18.398Z,2.25
2023-03-07T03:32:23.611Z,3.50
2023-03-07T03:33:28.953Z,3.75
2023-03-07T03:34:33.970Z,3.50
2023-03-07T03:35:39.397Z,2.50
2023-03-07T03:36:44.431Z,4.00
2023-03-07T03:37:49.880Z,3.25
2023-03-07T03:38:55.090Z,2.75
2023-03-07T03:40:00.353Z,2.75
2023-03-07T03:41:05.759Z,2.50
2023-03-07T03:42:10.475Z,2.50
2023-03-07T03:43:14.700Z,2.75
2023-03-07T03:44:19.821Z,2.25
2023-03-07T03:45:24.888Z,2.00
2023-03-07T03:46:30.536Z,2.00
2023-03-07T03:47:35.089Z,1.50
2023-03-07T03:48:40.014Z,1.75
2023-03-07T03:49:45.300Z,1.50
2023-03-07T03:50:50.675Z,0.50
2023-03-07T03:51:55.495Z,0.50
2023-03-07T03:53:00.198Z,1.00
2023-03-07T03:54:04.636Z,1.00
2023-03-07T03:55:10.285Z,1.00
2023-03-07T03:56:15.918Z,2.50
2023-03-07T03:57:20.125Z,0.50
2023-03-07T03:58:25.542Z,1.00
2023-03-07T03:59:30.904Z,2.00
2023-03-07T04:00:36.624Z,1.00
2023-03-07T04:01:44.840Z,2.00
2023-03-07T04:02:50.085Z,2.00
2023-03-07T04:03:55.601Z,2.00
2023-03-07T04:05:00.663Z,2.00
2023-03-07T04:06:05.940Z,1.25
2023-03-07T04:07:11.077Z,0.75
2023-03-07T04:08:16.330Z,1.50
2023-03-07T04:09:21.255Z,2.00
2023-03-07T04:10:25.967Z,1.75
2023-03-07T04:11:31.073Z,1.50
2023-03-07T04:12:38.219Z,1.50
2023-03-07T04:13:43.383Z,2.00
2023-03-07T04:14:48.709Z,1.50
2023-03-07T04:15:55.307Z,1.00
2023-03-07T04:17:00.915Z,1.50
2023-03-07T04:18:05.948Z,0.50
2023-03-07T04:19:15.473Z,1.00
2023-03-07T04:20:20.177Z,1.50
2023-03-07T04:21:24.519Z,1.00
2023-03-07T04:22:31.263Z,1.50
2023-03-07T04:23:37.227Z,1.50
2023-03-07T04:24:49.814Z,1.00
2023-03-07T04:25:54.779Z,0.25
2023-03-07T04:27:00.778Z,2.00
2023-03-07T04:28:05.483Z,1.00
2023-03-07T04:29:11.739Z,1.00
2023-03-07T04:30:17.513Z,2.00
2023-03-07T04:31:22.910Z,1.50
2023-03-07T04:32:28.514Z,0.50
2023-03-07T04:33:34.099Z,1.50
2023-03-07T04:34:39.229Z,1.00
2023-03-07T04:35:44.097Z,1.00
2023-03-07T04:36:50.194Z,2.00
2023-03-07T04:37:55.530Z,2.00
2023-03-07T04:39:00.260Z,2.00
2023-03-07T04:40:04.767Z,2.00
2023-03-07T04:41:09.166Z,2.00
2023-03-07T04:42:13.780Z,2.00
2023-03-07T04:43:18.085Z,1.50
2023-03-07T04:44:22.610Z,1.50
2023-03-07T04:45:27.011Z,1.25
2023-03-07T04:46:31.580Z,1.00
2023-03-07T04:47:36.039Z,1.50
2023-03-07T20:21:19.187Z,9.00
2023-03-07T20:22:23.409Z,6.50
2023-03-07T20:23:33.861Z,7.00
2023-03-07T20:26:45.346Z,8.50
2023-03-07T20:27:49.639Z,9.00
2023-03-07T20:28:53.764Z,9.50
2023-03-07T20:29:57.946Z,8.50
2023-03-07T20:31:02.094Z,8.00
2023-03-07T20:32:07.094Z,8.00
2023-03-07T20:33:11.783Z,9.00
2023-03-07T20:34:16.599Z,9.00
2023-03-07T20:35:21.025Z,9.00
2023-03-07T20:36:25.526Z,9.25
2023-03-07T20:37:32.428Z,9.50
2023-03-07T20:38:37.021Z,8.50
2023-03-07T20:39:51.542Z,8.00
2023-03-07T20:40:55.885Z,8.50
2023-03-07T20:42:00.382Z,8.00
2023-03-07T20:43:05.121Z,7.00
2023-03-07T20:44:10.350Z,9.25
2023-03-07T20:45:14.536Z,8.00
2023-03-07T20:46:20.382Z,8.00
2023-03-07T20:47:24.822Z,8.50
2023-03-07T20:48:29.324Z,9.50
2023-03-07T20:49:34.052Z,10.00
2023-03-07T20:50:38.858Z,14.00
2023-03-07T20:51:47.626Z,11.25
2023-03-07T20:52:52.594Z,7.75
2023-03-07T20:53:57.426Z,7.50
2023-03-07T20:55:01.539Z,7.50
2023-03-07T20:57:12.421Z,6.75
2023-03-07T20:58:16.891Z,7.75
2023-03-07T20:59:22.815Z,7.50
2023-03-07T21:02:48.291Z,8.00
2023-03-07T21:03:52.951Z,7.50
2023-03-07T21:04:57.497Z,9.00
2023-03-07T21:06:01.515Z,8.50
2023-03-07T21:07:05.533Z,6.00
2023-03-07T21:08:18.994Z,13.00
2023-03-07T21:09:23.164Z,18.25
2023-03-07T21:10:27.545Z,5.00
2023-03-07T21:11:32.486Z,6.50
2023-03-07T21:12:37.082Z,7.50
2023-03-07T21:13:41.280Z,9.00
2023-03-07T21:14:45.635Z,7.00
2023-03-07T21:15:49.716Z,7.00
2023-03-07T21:16:54.016Z,6.75
2023-03-07T21:17:58.312Z,7.25
2023-03-07T21:19:03.332Z,7.25
2023-03-07T21:20:14.938Z,6.00
2023-03-07T21:21:20.042Z,5.00
2023-03-07T21:22:24.368Z,6.00
2023-03-07T21:23:30.613Z,7.00
2023-03-07T21:24:36.232Z,7.00
2023-03-07T21:25:40.949Z,7.50
2023-03-07T21:26:50.015Z,7.50
2023-03-07T21:27:54.510Z,8.00
2023-03-07T21:28:58.987Z,7.50
2023-03-07T21:30:03.616Z,6.75
2023-03-07T21:31:08.529Z,7.25
2023-03-07T21:32:15.745Z,7.50
2023-03-07T21:33:20.340Z,7.00
2023-03-07T21:34:25.453Z,6.50
2023-03-07T21:35:29.880Z,6.50
2023-03-07T21:36:34.428Z,7.00
2023-03-07T21:37:39.426Z,7.00
2023-03-07T21:38:44.218Z,5.00
2023-03-07T21:39:48.798Z,7.50
2023-03-07T21:40:53.476Z,11.00
2023-03-07T21:41:58.098Z,9.00
2023-03-07T21:43:02.676Z,6.75
2023-03-07T21:44:07.113Z,6.00
2023-03-07T21:45:11.905Z,6.50
2023-03-07T21:46:22.513Z,5.75
2023-03-07T21:47:26.588Z,4.50
2023-03-07T21:48:32.415Z,3.50
2023-03-07T21:49:40.510Z,4.50
2023-03-07T21:50:46.811Z,4.50
2023-03-07T21:51:51.885Z,5.50
2023-03-07T21:52:57.117Z,5.00
2023-03-07T21:54:01.717Z,5.00
2023-03-07T21:55:07.118Z,4.25
2023-03-07T21:56:11.495Z,4.00
2023-03-07T21:57:15.583Z,4.50
2023-03-07T21:58:20.658Z,4.50
2023-03-07T21:59:25.235Z,5.00
2023-03-07T22:00:29.462Z,4.75
2023-03-07T22:01:46.470Z,6.00
2023-03-07T22:02:50.597Z,7.50
2023-03-07T22:03:54.969Z,6.75
2023-03-07T22:04:58.966Z,7.50
2023-03-07T22:06:02.783Z,7.00
2023-03-07T22:07:06.775Z,5.75
2023-03-07T22:08:11.368Z,5.50
2023-03-07T22:09:15.593Z,6.75
2023-03-07T22:10:20.104Z,7.50
2023-03-07T22:11:24.485Z,10.50
2023-03-07T22:12:29.321Z,10.25
2023-03-07T22:13:33.833Z,9.75
2023-03-07T22:14:38.753Z,8.00
2023-03-07T22:15:42.966Z,7.00
2023-03-07T22:16:47.371Z,10.25
2023-03-07T22:17:51.576Z,7.25
2023-03-07T22:18:55.710Z,6.50
2023-03-07T22:20:01.211Z,6.00
2023-03-07T22:21:05.716Z,5.25
2023-03-07T22:22:10.851Z,5.00
2023-03-07T22:23:15.800Z,4.00
2023-03-07T22:24:20.609Z,5.00
2023-03-07T22:25:26.044Z,6.00
2023-03-07T22:26:30.766Z,9.25
2023-03-07T22:27:35.066Z,18.00
2023-03-07T22:28:39.419Z,6.25
2023-03-07T22:29:43.878Z,7.00
2023-03-07T22:30:48.673Z,6.25
2023-03-07T22:31:53.266Z,6.50
2023-03-07T22:32:57.545Z,6.00
2023-03-07T22:34:01.650Z,3.75
2023-03-07T22:35:05.749Z,3.75
2023-03-07T22:36:10.854Z,4.00
2023-03-07T22:37:16.391Z,3.00
2023-03-07T22:38:20.938Z,4.50
2023-03-07T22:39:25.631Z,6.50
2023-03-07T22:40:40.039Z,6.50
2023-03-07T22:41:44.093Z,5.50
2023-03-07T22:42:48.185Z,6.25
2023-03-07T22:50:14.664Z,2.00
2023-03-07T22:51:19.364Z,3.50
2023-03-07T22:52:23.510Z,4.50
2023-03-07T22:53:28.393Z,5.25
2023-03-07T22:54:32.608Z,5.75
2023-03-07T22:55:37.007Z,5.75
2023-03-07T22:56:41.304Z,3.50
2023-03-07T22:57:45.718Z,2.50
2023-03-07T22:58:50.146Z,4.00
2023-03-07T22:59:54.813Z,3.50
2023-03-07T23:00:59.560Z,3.00
2023-03-07T23:02:03.784Z,4.25
2023-03-07T23:03:08.421Z,5.50
2023-03-07T23:04:13.452Z,6.25
2023-03-07T23:05:18.324Z,4.00
2023-03-07T23:06:22.838Z,4.00
2023-03-07T23:07:26.967Z,5.50
2023-03-07T23:08:31.590Z,4.50
2023-03-07T23:09:36.202Z,2.50
2023-03-07T23:10:40.706Z,3.00
2023-03-07T23:11:51.753Z,3.50
2023-03-07T23:12:56.512Z,3.25
2023-03-07T23:14:01.397Z,2.50
2023-03-07T23:15:05.939Z,2.00
2023-03-07T23:16:10.573Z,2.50
2023-03-07T23:17:15.034Z,3.50
2023-03-07T23:18:19.242Z,4.50
2023-03-07T23:19:23.978Z,3.50
2023-03-07T23:20:28.507Z,2.75
2023-03-07T23:21:33.421Z,3.00
2023-03-07T23:22:38.324Z,2.25
2023-03-07T23:23:42.746Z,3.00
2023-03-07T23:24:47.756Z,2.50
2023-03-07T23:25:52.265Z,3.00
2023-03-07T23:26:57.398Z,2.75
2023-03-07T23:28:02.110Z,2.50
2023-03-07T23:29:06.438Z,2.00
2023-03-07T23:30:11.365Z,3.00
2023-03-07T23:31:15.888Z,3.50
2023-03-07T23:32:20.644Z,4.00
2023-03-07T23:33:25.355Z,4.75
2023-03-07T23:34:29.813Z,3.00
2023-03-07T23:35:34.717Z,3.50
2023-03-07T23:36:38.949Z,3.00
2023-03-07T23:37:43.241Z,3.50
2023-03-07T23:38:47.869Z,4.00
2023-03-07T23:39:52.814Z,3.25
2023-03-07T23:40:57.508Z,4.00
2023-03-07T23:42:02.226Z,3.50
2023-03-07T23:43:06.936Z,3.25
2023-03-07T23:44:11.244Z,3.50
2023-03-07T23:45:15.445Z,4.00
2023-03-07T23:46:19.926Z,3.00
2023-03-07T23:47:24.272Z,3.00
2023-03-07T23:48:28.676Z,3.00
2023-03-07T23:49:32.801Z,3.00
2023-03-07T23:50:37.816Z,4.00
2023-03-07T23:51:43.047Z,3.75
2023-03-07T23:52:48.370Z,4.00
2023-03-07T23:53:53.210Z,5.50
2023-03-07T23:54:58.134Z,9.25
2023-03-07T23:56:02.833Z,12.50
2023-03-07T23:57:07.854Z,9.50
2023-03-07T23:58:12.268Z,6.50
2023-03-07T23:59:16.475Z,5.00
